createdAt,value
2022-08-12T12:11:17.271Z,946.41
2022-08-12T12:12:17.206Z,946.04
2022-08-12T12:13:23.001Z,946.47
2022-08-12T12:14:17.784Z,947.88
2022-08-12T12:15:25.227Z,947.15
2022-08-12T12:16:17.216Z,947.19
2022-08-12T12:17:17.351Z,947.42
2022-08-12T12:18:17.596Z,947.11
2022-08-12T12:19:17.224Z,947.58
2022-08-12T12:20:17.312Z,948.04
2022-08-12T12:21:17.282Z,948.09
2022-08-12T12:22:23.657Z,948.98
2022-08-12T12:23:28.977Z,948.26
2022-08-12T12:24:21.613Z,949.21
2022-08-12T12:25:19.871Z,947.83
2022-08-12T12:26:35.579Z,947.83
2022-08-12T12:27:18.229Z,947.94
2022-08-12T12:28:36.931Z,948.10
2022-08-12T12:30:13.823Z,948.14
2022-08-12T12:30:25.594Z,948.62
2022-08-12T12:32:10.932Z,948.54
2022-08-12T12:32:18.643Z,948.38
2022-08-12T12:33:18.036Z,948.95
2022-08-12T12:34:30.326Z,949.22
2022-08-12T12:36:06.303Z,949.51
2022-08-12T12:36:24.170Z,948.73
2022-08-12T12:37:27.032Z,950.46
2022-08-12T12:38:17.610Z,949.29
2022-08-12T12:39:17.643Z,948.79
2022-08-12T12:40:17.500Z,949.83
2022-08-12T12:41:17.425Z,951.15
2022-08-12T12:42:42.665Z,949.15
2022-08-12T12:43:17.382Z,948.76
2022-08-12T12:44:30.302Z,950.27
2022-08-12T12:45:19.676Z,949.72
2022-08-12T12:46:17.422Z,949.05
2022-08-12T12:47:28.695Z,949.73
2022-08-12T12:48:17.497Z,949.92
2022-08-12T12:49:17.482Z,949.19
2022-08-12T12:50:35.644Z,949.70
2022-08-12T12:51:49.451Z,950.20
2022-08-12T12:52:18.797Z,949.10
2022-08-12T12:54:05.915Z,948.38
2022-08-12T12:54:18.887Z,948.44
2022-08-12T12:55:17.491Z,948.87
2022-08-12T12:56:17.408Z,948.19
2022-08-12T12:57:17.396Z,947.91
2022-08-12T12:58:17.379Z,947.61
2022-08-12T12:59:55.415Z,947.76
2022-08-12T13:00:17.838Z,948.75
2022-08-12T13:01:27.818Z,948.78
2022-08-12T13:02:42.235Z,949.43
2022-08-12T13:03:20.572Z,948.87
2022-08-12T13:04:17.817Z,949.25
2022-08-12T13:05:19.258Z,950.07
2022-08-12T13:06:19.010Z,949.14
2022-08-12T13:07:20.488Z,949.05
2022-08-12T13:08:17.609Z,948.90
2022-08-12T13:09:22.281Z,949.33
2022-08-12T13:10:17.585Z,950.70
2022-08-12T13:11:17.556Z,950.09
2022-08-12T13:12:22.960Z,949.79
2022-08-12T13:14:06.885Z,949.91
2022-08-12T13:14:30.839Z,949.09
2022-08-12T13:15:43.592Z,949.72
2022-08-12T13:16:20.833Z,949.83
2022-08-12T13:17:20.265Z,949.57
2022-08-12T13:18:17.817Z,950.20
2022-08-12T13:19:25.394Z,949.57
2022-08-12T13:20:38.284Z,950.25
2022-08-12T13:21:36.421Z,949.76
2022-08-12T13:22:21.009Z,950.31
2022-08-12T13:23:47.990Z,949.37
2022-08-12T13:24:21.855Z,949.93
2022-08-12T13:25:20.268Z,949.72
2022-08-12T13:26:19.096Z,949.34
2022-08-12T13:27:19.809Z,950.63
2022-08-12T13:28:31.707Z,950.35
2022-08-12T13:29:23.622Z,950.47
2022-08-12T13:30:23.720Z,951.13
2022-08-12T13:31:22.712Z,950.91
2022-08-12T13:32:30.955Z,950.00
2022-08-12T13:33:19.664Z,950.31
2022-08-12T13:34:33.947Z,950.48
2022-08-12T13:35:33.402Z,950.06
2022-08-12T13:36:19.927Z,949.42
2022-08-12T13:37:20.507Z,950.56
2022-08-12T13:38:35.247Z,950.57
2022-08-12T13:39:32.028Z,949.67
2022-08-12T13:40:17.768Z,949.74
2022-08-12T13:41:18.184Z,950.58
2022-08-12T13:42:17.820Z,950.11
2022-08-12T13:43:40.260Z,949.45
2022-08-12T13:44:17.903Z,949.73
2022-08-12T13:45:17.806Z,949.83
2022-08-12T13:46:17.748Z,950.83
2022-08-12T13:47:19.836Z,950.78
2022-08-12T13:48:19.821Z,950.35
2022-08-12T13:49:55.017Z,949.92
2022-08-12T13:50:17.715Z,950.20
2022-08-12T13:51:21.024Z,950.85
2022-08-12T13:52:17.890Z,949.66
2022-08-12T13:53:23.689Z,951.29
2022-08-12T13:54:18.415Z,950.01
2022-08-12T13:55:18.010Z,950.18
2022-08-12T13:56:17.882Z,949.57
2022-08-12T13:57:17.896Z,949.53
2022-08-12T13:58:17.901Z,951.02
2022-08-12T13:59:18.286Z,951.01
2022-08-12T14:00:17.891Z,950.89
2022-08-12T14:01:17.933Z,950.60
2022-08-12T14:02:17.961Z,950.46
2022-08-12T14:03:17.995Z,949.71
2022-08-12T14:04:18.562Z,950.55
2022-08-12T14:05:37.839Z,950.28
2022-08-12T14:06:17.809Z,949.53
2022-08-12T14:07:17.869Z,949.29
2022-08-12T14:08:21.383Z,948.78
2022-08-12T14:09:19.848Z,949.00
2022-08-12T14:10:17.922Z,948.80
2022-08-12T14:11:17.924Z,949.80
2022-08-12T14:12:17.936Z,949.00
2022-08-12T14:14:04.838Z,949.21
2022-08-12T14:14:17.949Z,948.67
2022-08-12T14:15:17.937Z,949.16
2022-08-12T14:16:46.760Z,948.99
2022-08-12T14:17:19.833Z,948.88
2022-08-12T14:18:18.429Z,948.87
2022-08-12T14:19:25.581Z,951.31
2022-08-12T14:20:17.990Z,949.02
2022-08-12T14:21:18.210Z,949.22
2022-08-12T14:22:17.994Z,949.91
2022-08-12T14:24:04.925Z,949.83
2022-08-12T14:24:18.322Z,949.49
2022-08-12T14:25:18.087Z,949.32
2022-08-12T14:26:19.993Z,949.97
